sensor_id;sensor_type;location;lat;lon;timestamp;temperature;humidity
25248;DHT22;13191;47.472;11.214;2022-08-19T00:00:19;16.50;99.90
25248;DHT22;13191;47.472;11.214;2022-08-19T00:02:45;16.40;99.90
25248;DHT22;13191;47.472;11.214;2022-08-19T00:05:13;16.40;99.90
25248;DHT22;13191;47.472;11.214;2022-08-19T00:07:41;16.40;99.90
25248;DHT22;13191;47.472;11.214;2022-08-19T00:10:09;16.50;99.90
25248;DHT22;13191;47.472;11.214;2022-08-19T00:12:35;16.60;99.90
25248;DHT22;13191;47.472;11.214;2022-08-19T00:15:02;16.60;99.90
25248;DHT22;13191;47.472;11.214;2022-08-19T00:17:27;16.70;99.90
25248;DHT22;13191;47.472;11.214;2022-08-19T00:19:53;16.70;99.90
25248;DHT22;13191;47.472;11.214;2022-08-19T00:22:18;16.70;99.90
25248;DHT22;13191;47.472;11.214;2022-08-19T00:24:45;16.70;99.90
25248;DHT22;13191;47.472;11.214;2022-08-19T00:27:11;16.70;99.90
25248;DHT22;13191;47.472;11.214;2022-08-19T00:29:37;16.70;99.90
25248;DHT22;13191;47.472;11.214;2022-08-19T00:32:04;16.70;99.90
25248;DHT22;13191;47.472;11.214;2022-08-19T00:34:30;16.70;99.90
25248;DHT22;13191;47.472;11.214;2022-08-19T00:36:56;16.70;99.90
25248;DHT22;13191;47.472;11.214;2022-08-19T00:39:22;16.70;99.90
25248;DHT22;13191;47.472;11.214;2022-08-19T00:41:49;16.60;99.90
25248;DHT22;13191;47.472;11.214;2022-08-19T00:44:19;16.60;99.90
25248;DHT22;13191;47.472;11.214;2022-08-19T00:46:46;16.60;99.90
25248;DHT22;13191;47.472;11.214;2022-08-19T00:49:36;16.60;99.90
25248;DHT22;13191;47.472;11.214;2022-08-19T00:52:23;16.60;99.90
25248;DHT22;13191;47.472;11.214;2022-08-19T00:54:51;16.50;99.90
25248;DHT22;13191;47.472;11.214;2022-08-19T00:57:24;16.60;99.90
25248;DHT22;13191;47.472;11.214;2022-08-19T00:59:52;16.50;99.90
25248;DHT22;13191;47.472;11.214;2022-08-19T01:02:19;16.50;99.90
25248;DHT22;13191;47.472;11.214;2022-08-19T01:04:45;16.40;99.90
25248;DHT22;13191;47.472;11.214;2022-08-19T01:07:10;16.50;99.90
25248;DHT22;13191;47.472;11.214;2022-08-19T01:09:37;16.50;99.90
25248;DHT22;13191;47.472;11.214;2022-08-19T01:12:02;16.50;99.90
25248;DHT22;13191;47.472;11.214;2022-08-19T01:14:29;16.50;99.90
25248;DHT22;13191;47.472;11.214;2022-08-19T01:16:56;16.60;99.90
25248;DHT22;13191;47.472;11.214;2022-08-19T01:19:35;16.60;99.90
25248;DHT22;13191;47.472;11.214;2022-08-19T01:22:16;16.60;99.90
25248;DHT22;13191;47.472;11.214;2022-08-19T01:24:44;16.70;99.90
25248;DHT22;13191;47.472;11.214;2022-08-19T01:27:10;16.60;99.90
25248;DHT22;13191;47.472;11.214;2022-08-19T01:29:39;16.60;99.90
25248;DHT22;13191;47.472;11.214;2022-08-19T01:32:06;16.60;99.90
25248;DHT22;13191;47.472;11.214;2022-08-19T01:34:32;16.60;99.90
25248;DHT22;13191;47.472;11.214;2022-08-19T01:37:00;16.60;99.90
25248;DHT22;13191;47.472;11.214;2022-08-19T01:39:27;16.60;99.90
25248;DHT22;13191;47.472;11.214;2022-08-19T01:41:53;16.70;99.90
25248;DHT22;13191;47.472;11.214;2022-08-19T01:44:20;16.70;99.90
25248;DHT22;13191;47.472;11.214;2022-08-19T01:46:49;16.70;99.90
25248;DHT22;13191;47.472;11.214;2022-08-19T01:49:20;16.80;99.90
25248;DHT22;13191;47.472;11.214;2022-08-19T01:51:47;16.80;99.90
25248;DHT22;13191;47.472;11.214;2022-08-19T01:54:14;16.80;99.90
25248;DHT22;13191;47.472;11.214;2022-08-19T01:56:40;16.80;99.90
25248;DHT22;13191;47.472;11.214;2022-08-19T01:59:12;16.80;99.90
25248;DHT22;13191;47.472;11.214;2022-08-19T02:01:40;16.80;99.90
25248;DHT22;13191;47.472;11.214;2022-08-19T02:04:05;16.80;99.90
25248;DHT22;13191;47.472;11.214;2022-08-19T02:06:31;16.80;99.90
25248;DHT22;13191;47.472;11.214;2022-08-19T02:08:58;16.80;99.90
25248;DHT22;13191;47.472;11.214;2022-08-19T02:11:28;16.80;99.90
25248;DHT22;13191;47.472;11.214;2022-08-19T02:13:54;16.80;99.90
25248;DHT22;13191;47.472;11.214;2022-08-19T02:16:20;16.80;99.90
25248;DHT22;13191;47.472;11.214;2022-08-19T02:18:47;16.80;99.90
25248;DHT22;13191;47.472;11.214;2022-08-19T02:21:15;16.80;99.90
25248;DHT22;13191;47.472;11.214;2022-08-19T02:23:41;16.80;99.90
25248;DHT22;13191;47.472;11.214;2022-08-19T02:26:08;16.80;99.90
25248;DHT22;13191;47.472;11.214;2022-08-19T02:28:34;16.90;99.90
25248;DHT22;13191;47.472;11.214;2022-08-19T02:30:59;16.90;99.90
25248;DHT22;13191;47.472;11.214;2022-08-19T02:33:26;16.90;99.90
25248;DHT22;13191;47.472;11.214;2022-08-19T02:35:52;16.90;99.90
25248;DHT22;13191;47.472;11.214;2022-08-19T02:38:18;16.90;99.90
25248;DHT22;13191;47.472;11.214;2022-08-19T02:41:16;16.90;99.90
25248;DHT22;13191;47.472;11.214;2022-08-19T02:43:40;16.80;99.90
25248;DHT22;13191;47.472;11.214;2022-08-19T02:46:21;16.80;99.90
25248;DHT22;13191;47.472;11.214;2022-08-19T02:48:49;16.80;99.90
25248;DHT22;13191;47.472;11.214;2022-08-19T02:51:18;16.80;99.90
25248;DHT22;13191;47.472;11.214;2022-08-19T02:53:44;16.90;99.90
25248;DHT22;13191;47.472;11.214;2022-08-19T02:56:09;16.80;99.90
25248;DHT22;13191;47.472;11.214;2022-08-19T02:58:35;16.90;99.90
25248;DHT22;13191;47.472;11.214;2022-08-19T03:01:01;16.90;99.90
25248;DHT22;13191;47.472;11.214;2022-08-19T03:03:26;16.80;99.90
25248;DHT22;13191;47.472;11.214;2022-08-19T03:06:06;16.80;99.90
25248;DHT22;13191;47.472;11.214;2022-08-19T03:08:31;16.90;99.90
25248;DHT22;13191;47.472;11.214;2022-08-19T03:10:57;16.90;99.90
25248;DHT22;13191;47.472;11.214;2022-08-19T03:13:23;16.80;99.90
25248;DHT22;13191;47.472;11.214;2022-08-19T03:15:49;16.80;99.90
25248;DHT22;13191;47.472;11.214;2022-08-19T03:18:15;16.80;99.90
25248;DHT22;13191;47.472;11.214;2022-08-19T03:20:43;16.60;99.90
25248;DHT22;13191;47.472;11.214;2022-08-19T03:23:10;16.70;99.90
25248;DHT22;13191;47.472;11.214;2022-08-19T03:25:38;16.70;99.90
25248;DHT22;13191;47.472;11.214;2022-08-19T03:28:05;16.70;99.90
25248;DHT22;13191;47.472;11.214;2022-08-19T03:30:32;16.70;99.90
25248;DHT22;13191;47.472;11.214;2022-08-19T03:32:58;16.70;99.90
25248;DHT22;13191;47.472;11.214;2022-08-19T03:35:24;16.70;99.90
25248;DHT22;13191;47.472;11.214;2022-08-19T03:37:49;16.70;99.90
25248;DHT22;13191;47.472;11.214;2022-08-19T03:40:16;16.70;99.90
25248;DHT22;13191;47.472;11.214;2022-08-19T03:42:41;16.70;99.90
25248;DHT22;13191;47.472;11.214;2022-08-19T03:45:08;16.80;99.90
25248;DHT22;13191;47.472;11.214;2022-08-19T03:47:33;16.70;99.90
25248;DHT22;13191;47.472;11.214;2022-08-19T03:49:59;16.70;99.90
25248;DHT22;13191;47.472;11.214;2022-08-19T03:52:24;16.70;99.90
25248;DHT22;13191;47.472;11.214;2022-08-19T03:54:50;16.70;99.90
25248;DHT22;13191;47.472;11.214;2022-08-19T03:57:15;16.70;99.90
25248;DHT22;13191;47.472;11.214;2022-08-19T03:59:41;16.70;99.90
25248;DHT22;13191;47.472;11.214;2022-08-19T04:02:10;16.70;99.90
25248;DHT22;13191;47.472;11.214;2022-08-19T04:04:38;16.70;99.90
25248;DHT22;13191;47.472;11.214;2022-08-19T04:07:04;16.70;99.90
25248;DHT22;13191;47.472;11.214;2022-08-19T04:09:29;16.80;99.90
25248;DHT22;13191;47.472;11.214;2022-08-19T04:11:56;16.80;99.90
25248;DHT22;13191;47.472;11.214;2022-08-19T04:14:28;16.80;99.90
25248;DHT22;13191;47.472;11.214;2022-08-19T04:16:55;16.80;99.90
25248;DHT22;13191;47.472;11.214;2022-08-19T04:19:21;16.70;99.90
25248;DHT22;13191;47.472;11.214;2022-08-19T04:21:50;16.70;99.90
25248;DHT22;13191;47.472;11.214;2022-08-19T04:24:16;16.70;99.90
25248;DHT22;13191;47.472;11.214;2022-08-19T04:26:42;16.70;99.90
25248;DHT22;13191;47.472;11.214;2022-08-19T04:29:11;16.70;99.90
25248;DHT22;13191;47.472;11.214;2022-08-19T04:31:37;16.70;99.90
25248;DHT22;13191;47.472;11.214;2022-08-19T04:34:05;16.70;99.90
25248;DHT22;13191;47.472;11.214;2022-08-19T04:36:35;16.70;99.90
25248;DHT22;13191;47.472;11.214;2022-08-19T04:39:05;16.80;99.90
25248;DHT22;13191;47.472;11.214;2022-08-19T04:41:31;16.80;99.90
25248;DHT22;13191;47.472;11.214;2022-08-19T04:44:15;16.80;99.90
25248;DHT22;13191;47.472;11.214;2022-08-19T04:46:43;16.70;99.90
25248;DHT22;13191;47.472;11.214;2022-08-19T04:49:09;16.70;99.90
25248;DHT22;13191;47.472;11.214;2022-08-19T04:51:35;16.70;99.90
25248;DHT22;13191;47.472;11.214;2022-08-19T04:54:03;16.70;99.90
25248;DHT22;13191;47.472;11.214;2022-08-19T04:56:28;16.70;99.90
25248;DHT22;13191;47.472;11.214;2022-08-19T04:58:56;16.70;99.90
25248;DHT22;13191;47.472;11.214;2022-08-19T05:01:27;16.70;99.90
25248;DHT22;13191;47.472;11.214;2022-08-19T05:03:54;16.80;99.90
25248;DHT22;13191;47.472;11.214;2022-08-19T05:06:21;16.80;99.90
25248;DHT22;13191;47.472;11.214;2022-08-19T05:08:48;16.80;99.90
25248;DHT22;13191;47.472;11.214;2022-08-19T05:11:16;16.80;99.90
25248;DHT22;13191;47.472;11.214;2022-08-19T05:13:43;16.80;99.90
25248;DHT22;13191;47.472;11.214;2022-08-19T05:16:11;16.80;99.90
25248;DHT22;13191;47.472;11.214;2022-08-19T05:18:37;16.80;99.90
25248;DHT22;13191;47.472;11.214;2022-08-19T05:21:22;16.80;99.90
25248;DHT22;13191;47.472;11.214;2022-08-19T05:24:06;16.80;99.90
25248;DHT22;13191;47.472;11.214;2022-08-19T05:26:38;16.80;99.90
25248;DHT22;13191;47.472;11.214;2022-08-19T05:29:05;16.80;99.90
25248;DHT22;13191;47.472;11.214;2022-08-19T05:31:32;16.80;99.90
25248;DHT22;13191;47.472;11.214;2022-08-19T05:33:58;16.70;99.90
25248;DHT22;13191;47.472;11.214;2022-08-19T05:36:25;16.70;99.90
25248;DHT22;13191;47.472;11.214;2022-08-19T05:38:52;16.70;99.90
25248;DHT22;13191;47.472;11.214;2022-08-19T05:41:19;16.80;99.90
25248;DHT22;13191;47.472;11.214;2022-08-19T05:43:45;16.80;99.90
25248;DHT22;13191;47.472;11.214;2022-08-19T05:46:17;16.80;99.90
25248;DHT22;13191;47.472;11.214;2022-08-19T05:48:43;16.80;99.90
25248;DHT22;13191;47.472;11.214;2022-08-19T05:51:09;16.80;99.90
25248;DHT22;13191;47.472;11.214;2022-08-19T05:53:36;16.90;99.90
25248;DHT22;13191;47.472;11.214;2022-08-19T05:56:07;16.90;99.90
25248;DHT22;13191;47.472;11.214;2022-08-19T05:58:34;16.90;99.90
25248;DHT22;13191;47.472;11.214;2022-08-19T06:00:59;16.90;99.90
25248;DHT22;13191;47.472;11.214;2022-08-19T06:03:33;16.90;99.90
25248;DHT22;13191;47.472;11.214;2022-08-19T06:05:59;16.90;99.90
25248;DHT22;13191;47.472;11.214;2022-08-19T06:08:26;16.90;99.90
25248;DHT22;13191;47.472;11.214;2022-08-19T06:10:52;17.00;99.90
25248;DHT22;13191;47.472;11.214;2022-08-19T06:13:18;17.00;99.90
25248;DHT22;13191;47.472;11.214;2022-08-19T06:15:45;17.00;99.90
25248;DHT22;13191;47.472;11.214;2022-08-19T06:18:12;17.00;99.90
25248;DHT22;13191;47.472;11.214;2022-08-19T06:20:37;17.10;99.90
25248;DHT22;13191;47.472;11.214;2022-08-19T06:23:03;17.10;99.90
25248;DHT22;13191;47.472;11.214;2022-08-19T06:25:29;17.20;99.90
25248;DHT22;13191;47.472;11.214;2022-08-19T06:27:55;17.20;99.90
25248;DHT22;13191;47.472;11.214;2022-08-19T06:30:20;17.30;99.90
25248;DHT22;13191;47.472;11.214;2022-08-19T06:32:46;17.30;99.90
25248;DHT22;13191;47.472;11.214;2022-08-19T06:35:11;17.30;99.90
25248;DHT22;13191;47.472;11.214;2022-08-19T06:37:38;17.40;99.90
25248;DHT22;13191;47.472;11.214;2022-08-19T06:40:04;17.40;99.90
25248;DHT22;13191;47.472;11.214;2022-08-19T06:42:30;17.40;99.90
25248;DHT22;13191;47.472;11.214;2022-08-19T06:44:56;17.40;99.90
25248;DHT22;13191;47.472;11.214;2022-08-19T06:47:23;17.40;99.90
25248;DHT22;13191;47.472;11.214;2022-08-19T06:49:49;17.50;99.90
25248;DHT22;13191;47.472;11.214;2022-08-19T06:52:14;17.50;99.90
25248;DHT22;13191;47.472;11.214;2022-08-19T06:54:41;17.50;99.90
25248;DHT22;13191;47.472;11.214;2022-08-19T06:57:07;17.60;99.90
25248;DHT22;13191;47.472;11.214;2022-08-19T06:59:34;17.60;99.90
25248;DHT22;13191;47.472;11.214;2022-08-19T07:02:03;17.60;99.90
25248;DHT22;13191;47.472;11.214;2022-08-19T07:04:31;17.60;99.90
25248;DHT22;13191;47.472;11.214;2022-08-19T07:07:13;17.60;99.90
25248;DHT22;13191;47.472;11.214;2022-08-19T07:09:41;17.60;99.90
25248;DHT22;13191;47.472;11.214;2022-08-19T07:12:09;17.60;99.90
25248;DHT22;13191;47.472;11.214;2022-08-19T07:14:36;17.60;99.90
25248;DHT22;13191;47.472;11.214;2022-08-19T07:17:08;17.60;99.90
25248;DHT22;13191;47.472;11.214;2022-08-19T07:19:35;17.60;99.90
25248;DHT22;13191;47.472;11.214;2022-08-19T07:22:03;17.60;99.90
25248;DHT22;13191;47.472;11.214;2022-08-19T07:24:30;17.60;99.90
25248;DHT22;13191;47.472;11.214;2022-08-19T07:26:58;17.60;99.90
25248;DHT22;13191;47.472;11.214;2022-08-19T07:29:26;17.60;99.90
25248;DHT22;13191;47.472;11.214;2022-08-19T07:31:54;17.60;99.90
25248;DHT22;13191;47.472;11.214;2022-08-19T07:34:22;17.60;99.90
25248;DHT22;13191;47.472;11.214;2022-08-19T07:36:48;17.60;99.90
25248;DHT22;13191;47.472;11.214;2022-08-19T07:39:22;17.60;99.90
25248;DHT22;13191;47.472;11.214;2022-08-19T07:41:48;17.60;99.90
25248;DHT22;13191;47.472;11.214;2022-08-19T07:44:14;17.60;99.90
25248;DHT22;13191;47.472;11.214;2022-08-19T07:46:44;17.60;99.90
25248;DHT22;13191;47.472;11.214;2022-08-19T07:49:11;17.60;99.90
25248;DHT22;13191;47.472;11.214;2022-08-19T07:51:44;17.50;99.90
25248;DHT22;13191;47.472;11.214;2022-08-19T07:54:10;17.60;99.90
25248;DHT22;13191;47.472;11.214;2022-08-19T07:56:37;17.60;99.90
25248;DHT22;13191;47.472;11.214;2022-08-19T07:59:02;17.50;99.90
25248;DHT22;13191;47.472;11.214;2022-08-19T08:01:28;17.50;99.90
25248;DHT22;13191;47.472;11.214;2022-08-19T08:03:55;17.50;99.90
25248;DHT22;13191;47.472;11.214;2022-08-19T08:06:40;17.50;99.90
25248;DHT22;13191;47.472;11.214;2022-08-19T08:09:30;17.50;99.90
25248;DHT22;13191;47.472;11.214;2022-08-19T08:12:03;17.50;99.90
25248;DHT22;13191;47.472;11.214;2022-08-19T08:14:40;17.50;99.90
25248;DHT22;13191;47.472;11.214;2022-08-19T08:17:08;17.50;99.90
25248;DHT22;13191;47.472;11.214;2022-08-19T08:19:34;17.50;99.90
25248;DHT22;13191;47.472;11.214;2022-08-19T08:22:01;17.50;99.90
25248;DHT22;13191;47.472;11.214;2022-08-19T08:24:30;17.50;99.90
25248;DHT22;13191;47.472;11.214;2022-08-19T08:26:56;17.40;99.90
25248;DHT22;13191;47.472;11.214;2022-08-19T08:29:24;17.40;99.90
25248;DHT22;13191;47.472;11.214;2022-08-19T08:31:51;17.40;99.90
25248;DHT22;13191;47.472;11.214;2022-08-19T08:34:16;17.40;99.90
25248;DHT22;13191;47.472;11.214;2022-08-19T08:36:44;17.40;99.90
25248;DHT22;13191;47.472;11.214;2022-08-19T08:39:16;17.40;99.90
25248;DHT22;13191;47.472;11.214;2022-08-19T08:41:44;17.40;99.90
25248;DHT22;13191;47.472;11.214;2022-08-19T08:44:22;17.40;99.90
25248;DHT22;13191;47.472;11.214;2022-08-19T08:46:52;17.40;99.90
25248;DHT22;13191;47.472;11.214;2022-08-19T08:51:56;17.50;99.90
25248;DHT22;13191;47.472;11.214;2022-08-19T08:54:24;17.50;99.90
25248;DHT22;13191;47.472;11.214;2022-08-19T08:56:53;17.50;99.90
25248;DHT22;13191;47.472;11.214;2022-08-19T08:59:33;17.60;99.90
25248;DHT22;13191;47.472;11.214;2022-08-19T09:02:00;17.60;99.90
25248;DHT22;13191;47.472;11.214;2022-08-19T09:04:25;17.60;99.90
25248;DHT22;13191;47.472;11.214;2022-08-19T09:09:35;17.70;99.90
25248;DHT22;13191;47.472;11.214;2022-08-19T09:12:14;17.80;99.90
25248;DHT22;13191;47.472;11.214;2022-08-19T09:14:53;17.80;99.90
25248;DHT22;13191;47.472;11.214;2022-08-19T09:17:25;17.90;99.90
25248;DHT22;13191;47.472;11.214;2022-08-19T09:22:37;17.90;99.90
25248;DHT22;13191;47.472;11.214;2022-08-19T09:25:04;18.00;99.90
25248;DHT22;13191;47.472;11.214;2022-08-19T09:27:30;18.00;99.90
25248;DHT22;13191;47.472;11.214;2022-08-19T09:29:58;18.10;99.90
25248;DHT22;13191;47.472;11.214;2022-08-19T09:32:24;18.30;99.90
25248;DHT22;13191;47.472;11.214;2022-08-19T09:34:52;18.30;99.90
25248;DHT22;13191;47.472;11.214;2022-08-19T09:37:21;18.40;99.90
25248;DHT22;13191;47.472;11.214;2022-08-19T09:39:48;18.50;99.90
25248;DHT22;13191;47.472;11.214;2022-08-19T09:42:14;18.60;99.90
25248;DHT22;13191;47.472;11.214;2022-08-19T09:44:40;18.50;99.90
25248;DHT22;13191;47.472;11.214;2022-08-19T09:47:07;18.60;99.90
25248;DHT22;13191;47.472;11.214;2022-08-19T09:49:33;18.70;99.90
25248;DHT22;13191;47.472;11.214;2022-08-19T09:51:59;18.80;99.90
25248;DHT22;13191;47.472;11.214;2022-08-19T09:54:25;18.90;99.90
25248;DHT22;13191;47.472;11.214;2022-08-19T09:56:52;18.90;99.90
25248;DHT22;13191;47.472;11.214;2022-08-19T09:59:18;18.90;99.90
25248;DHT22;13191;47.472;11.214;2022-08-19T10:01:44;18.90;99.90
25248;DHT22;13191;47.472;11.214;2022-08-19T10:04:09;18.90;99.90
25248;DHT22;13191;47.472;11.214;2022-08-19T10:06:37;19.00;99.90
25248;DHT22;13191;47.472;11.214;2022-08-19T10:09:05;19.00;99.90
25248;DHT22;13191;47.472;11.214;2022-08-19T10:11:32;19.10;99.90
25248;DHT22;13191;47.472;11.214;2022-08-19T10:13:58;19.20;99.90
25248;DHT22;13191;47.472;11.214;2022-08-19T10:16:24;19.30;99.90
25248;DHT22;13191;47.472;11.214;2022-08-19T10:18:50;19.30;99.90
25248;DHT22;13191;47.472;11.214;2022-08-19T10:21:22;19.40;99.90
25248;DHT22;13191;47.472;11.214;2022-08-19T10:23:49;19.50;99.90
25248;DHT22;13191;47.472;11.214;2022-08-19T10:26:21;19.40;99.90
25248;DHT22;13191;47.472;11.214;2022-08-19T10:28:47;19.30;99.90
25248;DHT22;13191;47.472;11.214;2022-08-19T10:31:19;19.20;99.90
25248;DHT22;13191;47.472;11.214;2022-08-19T10:33:45;19.10;99.90
25248;DHT22;13191;47.472;11.214;2022-08-19T10:36:15;19.00;99.90
25248;DHT22;13191;47.472;11.214;2022-08-19T10:38:43;19.00;99.90
25248;DHT22;13191;47.472;11.214;2022-08-19T10:41:15;19.00;99.90
25248;DHT22;13191;47.472;11.214;2022-08-19T10:43:41;19.00;99.90
25248;DHT22;13191;47.472;11.214;2022-08-19T10:46:09;19.00;99.90
25248;DHT22;13191;47.472;11.214;2022-08-19T10:48:35;19.10;99.90
25248;DHT22;13191;47.472;11.214;2022-08-19T10:51:01;19.10;99.90
25248;DHT22;13191;47.472;11.214;2022-08-19T10:53:46;19.20;99.90
25248;DHT22;13191;47.472;11.214;2022-08-19T10:56:11;19.20;99.90
25248;DHT22;13191;47.472;11.214;2022-08-19T10:58:56;19.20;99.90
25248;DHT22;13191;47.472;11.214;2022-08-19T11:01:26;19.20;99.90
25248;DHT22;13191;47.472;11.214;2022-08-19T11:03:51;19.30;99.90
25248;DHT22;13191;47.472;11.214;2022-08-19T11:06:18;19.20;99.90
25248;DHT22;13191;47.472;11.214;2022-08-19T11:08:45;19.20;99.90
25248;DHT22;13191;47.472;11.214;2022-08-19T11:11:11;19.20;99.90
25248;DHT22;13191;47.472;11.214;2022-08-19T11:13:39;19.10;99.90
25248;DHT22;13191;47.472;11.214;2022-08-19T11:16:11;19.10;99.90
25248;DHT22;13191;47.472;11.214;2022-08-19T11:18:41;19.10;99.90
25248;DHT22;13191;47.472;11.214;2022-08-19T11:21:14;19.00;99.90
25248;DHT22;13191;47.472;11.214;2022-08-19T11:23:43;19.00;99.90
25248;DHT22;13191;47.472;11.214;2022-08-19T11:26:09;19.00;99.90
25248;DHT22;13191;47.472;11.214;2022-08-19T11:28:35;19.10;99.90
25248;DHT22;13191;47.472;11.214;2022-08-19T11:31:01;19.00;99.90
25248;DHT22;13191;47.472;11.214;2022-08-19T11:33:29;19.10;99.90
25248;DHT22;13191;47.472;11.214;2022-08-19T11:35:58;19.20;99.90
25248;DHT22;13191;47.472;11.214;2022-08-19T11:38:24;19.30;99.90
25248;DHT22;13191;47.472;11.214;2022-08-19T11:40:58;19.40;99.90
25248;DHT22;13191;47.472;11.214;2022-08-19T11:43:24;19.30;99.90
25248;DHT22;13191;47.472;11.214;2022-08-19T11:45:52;19.30;99.90
25248;DHT22;13191;47.472;11.214;2022-08-19T11:48:18;19.20;99.90
25248;DHT22;13191;47.472;11.214;2022-08-19T11:50:51;19.20;99.90
25248;DHT22;13191;47.472;11.214;2022-08-19T11:53:19;19.20;99.90
25248;DHT22;13191;47.472;11.214;2022-08-19T11:55:46;19.30;99.90
25248;DHT22;13191;47.472;11.214;2022-08-19T11:58:13;19.30;99.90
25248;DHT22;13191;47.472;11.214;2022-08-19T12:00:39;19.30;99.90
25248;DHT22;13191;47.472;11.214;2022-08-19T12:03:05;19.50;99.90
25248;DHT22;13191;47.472;11.214;2022-08-19T12:05:31;19.60;99.90
25248;DHT22;13191;47.472;11.214;2022-08-19T12:07:56;19.70;99.90
25248;DHT22;13191;47.472;11.214;2022-08-19T12:10:22;19.70;99.90
25248;DHT22;13191;47.472;11.214;2022-08-19T12:12:48;19.80;99.90
25248;DHT22;13191;47.472;11.214;2022-08-19T12:15:14;19.80;99.90
25248;DHT22;13191;47.472;11.214;2022-08-19T12:17:40;19.90;99.90
25248;DHT22;13191;47.472;11.214;2022-08-19T12:20:08;20.00;99.90
25248;DHT22;13191;47.472;11.214;2022-08-19T12:22:36;20.10;99.90
25248;DHT22;13191;47.472;11.214;2022-08-19T12:25:03;20.10;99.90
25248;DHT22;13191;47.472;11.214;2022-08-19T12:27:29;20.20;99.90
25248;DHT22;13191;47.472;11.214;2022-08-19T12:29:54;20.20;99.90
25248;DHT22;13191;47.472;11.214;2022-08-19T12:32:20;20.20;99.90
25248;DHT22;13191;47.472;11.214;2022-08-19T12:34:46;20.20;99.90
25248;DHT22;13191;47.472;11.214;2022-08-19T12:37:13;20.40;99.90
25248;DHT22;13191;47.472;11.214;2022-08-19T12:39:40;20.50;99.90
25248;DHT22;13191;47.472;11.214;2022-08-19T12:42:07;20.60;99.90
25248;DHT22;13191;47.472;11.214;2022-08-19T12:44:34;20.70;99.90
25248;DHT22;13191;47.472;11.214;2022-08-19T12:47:01;20.70;99.90
25248;DHT22;13191;47.472;11.214;2022-08-19T12:49:28;20.70;99.90
25248;DHT22;13191;47.472;11.214;2022-08-19T12:51:54;20.90;99.90
25248;DHT22;13191;47.472;11.214;2022-08-19T12:54:20;21.00;99.90
25248;DHT22;13191;47.472;11.214;2022-08-19T12:56:45;21.10;99.90
25248;DHT22;13191;47.472;11.214;2022-08-19T12:59:11;21.30;99.90
25248;DHT22;13191;47.472;11.214;2022-08-19T13:01:37;21.40;99.90
25248;DHT22;13191;47.472;11.214;2022-08-19T13:04:03;21.50;99.90
25248;DHT22;13191;47.472;11.214;2022-08-19T13:06:29;21.60;99.90
25248;DHT22;13191;47.472;11.214;2022-08-19T13:08:55;21.60;99.90
25248;DHT22;13191;47.472;11.214;2022-08-19T13:11:21;21.50;99.90
25248;DHT22;13191;47.472;11.214;2022-08-19T13:13:50;21.50;99.90
25248;DHT22;13191;47.472;11.214;2022-08-19T13:16:16;21.50;99.90
25248;DHT22;13191;47.472;11.214;2022-08-19T13:18:44;21.50;99.90
25248;DHT22;13191;47.472;11.214;2022-08-19T13:21:12;21.50;99.90
25248;DHT22;13191;47.472;11.214;2022-08-19T13:23:39;21.60;99.90
25248;DHT22;13191;47.472;11.214;2022-08-19T13:26:07;21.60;99.90
25248;DHT22;13191;47.472;11.214;2022-08-19T13:28:34;21.60;99.90
25248;DHT22;13191;47.472;11.214;2022-08-19T13:31:20;21.60;99.90
25248;DHT22;13191;47.472;11.214;2022-08-19T13:34:05;21.60;99.90
25248;DHT22;13191;47.472;11.214;2022-08-19T13:36:35;21.60;99.90
25248;DHT22;13191;47.472;11.214;2022-08-19T13:39:01;21.50;99.90
25248;DHT22;13191;47.472;11.214;2022-08-19T13:41:27;21.50;99.90
25248;DHT22;13191;47.472;11.214;2022-08-19T13:43:53;21.40;99.90
25248;DHT22;13191;47.472;11.214;2022-08-19T13:46:19;21.40;99.90
25248;DHT22;13191;47.472;11.214;2022-08-19T13:48:46;21.30;99.90
25248;DHT22;13191;47.472;11.214;2022-08-19T13:51:14;21.20;99.90
25248;DHT22;13191;47.472;11.214;2022-08-19T13:53:42;21.10;99.90
25248;DHT22;13191;47.472;11.214;2022-08-19T13:56:14;21.10;99.90
25248;DHT22;13191;47.472;11.214;2022-08-19T13:58:40;21.10;99.90
25248;DHT22;13191;47.472;11.214;2022-08-19T14:01:07;21.10;99.90
25248;DHT22;13191;47.472;11.214;2022-08-19T14:03:33;21.20;99.90
25248;DHT22;13191;47.472;11.214;2022-08-19T14:05:59;21.20;99.90
25248;DHT22;13191;47.472;11.214;2022-08-19T14:08:25;21.10;99.90
25248;DHT22;13191;47.472;11.214;2022-08-19T14:10:53;21.10;99.90
25248;DHT22;13191;47.472;11.214;2022-08-19T14:13:20;21.20;99.90
25248;DHT22;13191;47.472;11.214;2022-08-19T14:15:47;21.20;99.90
25248;DHT22;13191;47.472;11.214;2022-08-19T14:18:13;21.20;99.90
25248;DHT22;13191;47.472;11.214;2022-08-19T14:20:40;21.20;99.90
25248;DHT22;13191;47.472;11.214;2022-08-19T14:23:06;21.30;99.90
25248;DHT22;13191;47.472;11.214;2022-08-19T14:25:32;21.30;99.90
25248;DHT22;13191;47.472;11.214;2022-08-19T14:27:58;21.30;99.90
25248;DHT22;13191;47.472;11.214;2022-08-19T14:30:30;21.30;99.90
25248;DHT22;13191;47.472;11.214;2022-08-19T14:32:57;21.30;99.90
25248;DHT22;13191;47.472;11.214;2022-08-19T14:35:27;21.30;99.90
25248;DHT22;13191;47.472;11.214;2022-08-19T14:37:54;21.50;99.90
25248;DHT22;13191;47.472;11.214;2022-08-19T14:40:22;21.50;99.90
25248;DHT22;13191;47.472;11.214;2022-08-19T14:42:56;21.70;99.90
25248;DHT22;13191;47.472;11.214;2022-08-19T14:45:25;21.80;99.90
25248;DHT22;13191;47.472;11.214;2022-08-19T14:47:51;21.50;99.90
25248;DHT22;13191;47.472;11.214;2022-08-19T14:50:18;21.40;99.90
25248;DHT22;13191;47.472;11.214;2022-08-19T14:52:44;21.30;99.90
25248;DHT22;13191;47.472;11.214;2022-08-19T14:55:10;21.20;99.90
25248;DHT22;13191;47.472;11.214;2022-08-19T14:57:36;21.10;99.90
25248;DHT22;13191;47.472;11.214;2022-08-19T15:00:02;21.00;99.90
25248;DHT22;13191;47.472;11.214;2022-08-19T15:02:28;21.00;99.90
25248;DHT22;13191;47.472;11.214;2022-08-19T15:04:54;21.00;99.90
25248;DHT22;13191;47.472;11.214;2022-08-19T15:07:21;20.90;99.90
25248;DHT22;13191;47.472;11.214;2022-08-19T15:09:49;20.60;99.90
25248;DHT22;13191;47.472;11.214;2022-08-19T15:12:15;20.50;99.90
25248;DHT22;13191;47.472;11.214;2022-08-19T15:14:41;20.30;99.90
25248;DHT22;13191;47.472;11.214;2022-08-19T15:17:09;20.10;99.90
25248;DHT22;13191;47.472;11.214;2022-08-19T15:19:35;20.00;99.90
25248;DHT22;13191;47.472;11.214;2022-08-19T15:22:01;19.90;99.90
25248;DHT22;13191;47.472;11.214;2022-08-19T15:24:27;19.90;99.90
25248;DHT22;13191;47.472;11.214;2022-08-19T15:26:55;19.90;99.90